createdAt,value
2022-12-17T00:01:20.376Z,71.33
2022-12-17T00:04:06.198Z,69.15
2022-12-17T00:06:51.360Z,68.47
2022-12-17T00:09:36.500Z,68.39
2022-12-17T00:12:21.622Z,68.06
2022-12-17T00:15:06.754Z,68.40
2022-12-17T00:17:51.977Z,68.09
2022-12-17T00:20:37.239Z,69.13
2022-12-17T00:23:24.057Z,68.35
2022-12-17T00:26:10.749Z,69.70
2022-12-17T00:28:56.030Z,69.25
2022-12-17T00:31:41.873Z,69.35
2022-12-17T00:34:27.063Z,68.48
2022-12-17T00:37:12.464Z,68.18
2022-12-17T00:39:59.362Z,69.09
2022-12-17T00:42:44.695Z,69.90
2022-12-17T00:45:29.850Z,68.78
2022-12-17T00:48:14.910Z,68.98
2022-12-17T00:51:00.040Z,68.79
2022-12-17T00:53:45.093Z,68.74
2022-12-17T00:56:30.219Z,69.57
2022-12-17T00:59:15.275Z,70.12
2022-12-17T01:02:00.455Z,69.43
2022-12-17T01:04:45.608Z,68.86
2022-12-17T01:07:30.987Z,67.60
2022-12-17T01:10:16.239Z,68.21
2022-12-17T01:13:01.687Z,67.62
2022-12-17T01:15:57.508Z,68.96
2022-12-17T01:18:42.408Z,68.06
2022-12-17T01:21:27.635Z,69.00
2022-12-17T01:24:13.528Z,69.78
2022-12-17T01:26:58.699Z,70.38
2022-12-17T01:29:43.735Z,69.46
2022-12-17T01:32:28.875Z,69.66
2022-12-17T01:35:14.524Z,67.94
2022-12-17T01:37:59.565Z,68.05
2022-12-17T01:40:44.878Z,67.60
2022-12-17T01:43:30.860Z,67.18
2022-12-17T01:46:16.444Z,67.34
2022-12-17T01:49:06.280Z,67.99
2022-12-17T01:51:52.309Z,69.65
2022-12-17T01:54:37.903Z,67.58
2022-12-17T01:57:24.851Z,67.44
2022-12-17T02:00:16.288Z,66.37
2022-12-17T02:03:01.988Z,67.24
2022-12-17T02:05:53.056Z,68.17
2022-12-17T02:08:56.579Z,66.50
2022-12-17T02:11:57.114Z,66.77
2022-12-17T02:14:57.925Z,67.15
2022-12-17T02:17:51.054Z,67.34
2022-12-17T02:20:45.365Z,66.93
2022-12-17T02:23:56.569Z,67.66
2022-12-17T02:26:52.476Z,66.99
2022-12-17T02:29:39.454Z,66.27
2022-12-17T02:32:25.054Z,66.33
2022-12-17T02:35:10.183Z,65.55
2022-12-17T02:37:55.219Z,65.54
2022-12-17T02:40:41.551Z,64.38
2022-12-17T02:43:27.739Z,65.30
2022-12-17T02:46:14.475Z,64.52
2022-12-17T02:48:59.467Z,65.09
2022-12-17T02:51:45.010Z,64.85
2022-12-17T02:54:29.842Z,64.06
2022-12-17T02:57:14.947Z,64.39
2022-12-17T02:59:59.852Z,64.38
2022-12-17T03:02:45.106Z,64.84
2022-12-17T03:05:46.060Z,64.39
2022-12-17T03:08:31.928Z,64.02
2022-12-17T03:11:17.069Z,65.15
2022-12-17T03:14:02.089Z,64.44
2022-12-17T03:16:47.491Z,65.27
2022-12-17T03:19:32.605Z,63.60
2022-12-17T03:22:17.943Z,64.47
2022-12-17T03:25:02.754Z,65.19
2022-12-17T03:27:47.909Z,65.72
2022-12-17T03:30:36.138Z,64.34
2022-12-17T03:33:22.689Z,65.02
2022-12-17T03:36:11.757Z,65.90
2022-12-17T03:38:56.937Z,65.52
2022-12-17T03:41:42.139Z,65.38
2022-12-17T03:44:27.194Z,64.29
2022-12-17T03:47:12.239Z,66.24
2022-12-17T03:49:57.470Z,65.58
2022-12-17T03:52:42.521Z,65.06
2022-12-17T03:55:27.684Z,65.43
2022-12-17T03:58:12.682Z,64.83
2022-12-17T04:00:57.735Z,63.89
2022-12-17T04:03:42.828Z,64.02
2022-12-17T04:06:27.659Z,64.57
2022-12-17T04:09:12.730Z,65.50
2022-12-17T04:11:57.841Z,64.83
2022-12-17T04:14:42.918Z,64.80
2022-12-17T04:17:28.156Z,63.90
2022-12-17T04:20:13.243Z,64.95
2022-12-17T04:22:58.444Z,64.22
2022-12-17T04:25:43.474Z,63.54
2022-12-17T04:28:28.399Z,64.46
2022-12-17T04:31:17.969Z,63.68
2022-12-17T04:34:02.860Z,64.24
2022-12-17T04:36:47.964Z,64.44
2022-12-17T04:39:32.748Z,62.95
2022-12-17T04:42:17.753Z,64.69
2022-12-17T04:45:02.890Z,63.85
2022-12-17T04:47:47.992Z,65.10
2022-12-17T04:50:33.155Z,64.91
2022-12-17T04:53:21.947Z,64.74
2022-12-17T04:56:07.616Z,63.96
2022-12-17T04:58:52.713Z,64.50
2022-12-17T05:01:37.873Z,63.29
2022-12-17T05:04:22.938Z,63.99
2022-12-17T05:07:07.664Z,63.93
2022-12-17T05:09:52.619Z,65.36
2022-12-17T05:12:37.711Z,64.94
2022-12-17T05:15:23.403Z,65.29
2022-12-17T05:18:08.299Z,64.32
2022-12-17T05:20:53.270Z,65.13
2022-12-17T05:23:38.562Z,64.56
2022-12-17T05:26:41.379Z,65.78
2022-12-17T05:29:26.981Z,64.38
2022-12-17T05:32:12.070Z,64.61
2022-12-17T05:34:57.158Z,64.69
2022-12-17T05:37:42.390Z,64.29
2022-12-17T05:40:27.883Z,64.87
2022-12-17T05:43:18.057Z,65.61
2022-12-17T05:46:03.794Z,65.37
2022-12-17T05:48:48.845Z,64.82
2022-12-17T05:51:38.491Z,64.36
2022-12-17T05:54:24.114Z,64.63
2022-12-17T05:57:09.073Z,66.54
2022-12-17T05:59:54.317Z,66.83
2022-12-17T06:02:39.612Z,65.32
2022-12-17T06:05:24.687Z,64.56
2022-12-17T06:08:09.887Z,64.45
2022-12-17T06:10:54.960Z,63.08
2022-12-17T06:13:40.177Z,64.49
2022-12-17T06:16:25.515Z,64.07
2022-12-17T06:19:10.749Z,65.03
2022-12-17T06:21:55.514Z,64.51
2022-12-17T06:24:45.682Z,64.08
2022-12-17T06:27:31.278Z,65.39
2022-12-17T06:30:18.867Z,66.25
2022-12-17T06:33:04.768Z,64.26
2022-12-17T06:35:50.106Z,62.94
2022-12-17T06:38:35.246Z,63.43
2022-12-17T06:41:20.498Z,64.39
2022-12-17T06:44:05.382Z,64.76
2022-12-17T06:46:50.515Z,65.33
2022-12-17T06:49:35.637Z,65.53
2022-12-17T06:52:20.758Z,65.07
2022-12-17T06:55:05.758Z,65.17
2022-12-17T06:57:50.883Z,64.98
2022-12-17T07:00:36.652Z,65.10
2022-12-17T07:03:21.919Z,64.90
2022-12-17T07:06:07.044Z,64.84
2022-12-17T07:08:52.130Z,65.37
2022-12-17T07:11:37.442Z,64.70
2022-12-17T07:14:22.487Z,65.24
2022-12-17T07:17:07.533Z,64.40
2022-12-17T07:19:52.655Z,64.26
2022-12-17T07:22:37.762Z,63.52
2022-12-17T07:25:22.741Z,63.70
2022-12-17T07:28:16.209Z,63.06
2022-12-17T07:31:01.016Z,62.93
2022-12-17T07:33:45.851Z,63.35
2022-12-17T07:36:31.091Z,63.22
2022-12-17T07:39:16.177Z,64.11
2022-12-17T07:42:01.128Z,63.69
2022-12-17T07:44:46.298Z,63.04
2022-12-17T07:47:31.496Z,62.39
2022-12-17T07:50:16.543Z,62.66
2022-12-17T07:53:01.451Z,63.21
2022-12-17T07:55:46.896Z,63.44
2022-12-17T07:58:32.056Z,62.97
2022-12-17T08:01:20.812Z,63.44
2022-12-17T08:04:06.067Z,62.52
2022-12-17T08:06:52.999Z,63.27
2022-12-17T08:09:41.564Z,62.73
2022-12-17T08:12:26.691Z,62.54
2022-12-17T08:15:11.756Z,63.59
2022-12-17T08:17:56.711Z,63.42
2022-12-17T08:20:41.873Z,63.32
2022-12-17T08:23:27.004Z,62.62
2022-12-17T08:26:12.290Z,64.50
2022-12-17T08:28:57.209Z,65.37
2022-12-17T08:31:42.883Z,63.63
2022-12-17T08:34:27.699Z,63.85
2022-12-17T08:37:12.779Z,65.10
2022-12-17T08:39:57.698Z,66.37
2022-12-17T08:42:42.962Z,64.86
2022-12-17T08:45:28.609Z,63.53
2022-12-17T08:48:21.759Z,64.38
2022-12-17T08:51:06.838Z,64.83
2022-12-17T08:53:51.855Z,64.93
2022-12-17T08:56:37.035Z,64.84
2022-12-17T08:59:22.215Z,65.09
2022-12-17T09:02:07.476Z,64.72
2022-12-17T09:04:52.732Z,66.48
2022-12-17T09:07:38.003Z,64.02
2022-12-17T09:10:23.710Z,65.91
2022-12-17T09:13:08.759Z,66.05
2022-12-17T09:15:53.500Z,64.24
2022-12-17T09:18:40.150Z,64.08
2022-12-17T09:21:26.234Z,64.05
2022-12-17T09:24:11.208Z,64.68
2022-12-17T09:27:16.175Z,64.61
2022-12-17T09:30:01.592Z,64.78
2022-12-17T09:32:46.943Z,65.28
2022-12-17T09:35:32.182Z,65.14
2022-12-17T09:38:17.654Z,64.89
2022-12-17T09:41:06.401Z,67.13
2022-12-17T09:44:10.250Z,67.77
2022-12-17T09:47:04.314Z,66.71
2022-12-17T09:49:50.204Z,67.14
2022-12-17T09:52:45.500Z,68.08
2022-12-17T09:55:36.682Z,67.78
2022-12-17T09:58:22.379Z,69.17
2022-12-17T10:01:08.889Z,70.31
2022-12-17T10:03:54.559Z,71.45
2022-12-17T10:06:44.769Z,70.22
2022-12-17T10:09:32.360Z,72.35
2022-12-17T10:12:18.932Z,73.28
2022-12-17T10:15:04.246Z,72.55
2022-12-17T10:17:49.241Z,73.25
2022-12-17T10:20:45.592Z,72.15
2022-12-17T10:23:41.780Z,72.43
2022-12-17T10:26:26.951Z,73.86
2022-12-17T10:29:30.304Z,75.03
2022-12-17T10:32:37.396Z,72.78
2022-12-17T10:35:46.219Z,74.67
2022-12-17T10:38:46.042Z,72.71
2022-12-17T10:41:59.366Z,73.44
2022-12-17T10:44:52.787Z,74.62
2022-12-17T10:47:39.111Z,73.58
2022-12-17T10:50:42.892Z,73.23
2022-12-17T10:53:40.055Z,74.56
2022-12-17T10:56:25.538Z,74.95
2022-12-17T10:59:12.082Z,75.43
2022-12-17T11:02:01.071Z,74.57
2022-12-17T11:04:48.768Z,73.47
2022-12-17T11:07:44.134Z,75.81
2022-12-17T11:10:38.356Z,74.89
2022-12-17T11:13:41.682Z,73.18
2022-12-17T11:16:37.351Z,72.60
2022-12-17T11:19:28.663Z,72.34
2022-12-17T11:22:16.470Z,73.42
2022-12-17T11:25:43.312Z,72.91
2022-12-17T11:28:41.995Z,73.20
2022-12-17T11:31:36.491Z,71.71
2022-12-17T11:34:41.499Z,71.95
2022-12-17T11:37:49.846Z,71.40
2022-12-17T11:40:40.104Z,71.75
2022-12-17T11:43:35.956Z,74.22
2022-12-17T11:46:35.327Z,74.26
2022-12-17T11:49:57.640Z,73.31
2022-12-17T11:53:13.018Z,73.26
2022-12-17T11:56:26.927Z,71.91
2022-12-17T11:59:39.550Z,74.09
2022-12-17T12:02:57.190Z,72.97
2022-12-17T12:06:01.055Z,72.81
2022-12-17T12:08:53.526Z,73.61
2022-12-17T12:11:56.380Z,73.00
2022-12-17T12:14:59.610Z,73.41
2022-12-17T12:17:58.257Z,72.63
2022-12-17T12:21:11.273Z,74.30
2022-12-17T12:24:20.400Z,72.89
2022-12-17T12:27:19.206Z,74.42
2022-12-17T12:30:15.333Z,73.85
2022-12-17T12:33:15.438Z,72.63
2022-12-17T12:36:00.970Z,74.41
2022-12-17T12:38:53.092Z,73.61
2022-12-17T12:41:59.561Z,73.85
2022-12-17T12:45:03.605Z,72.91
2022-12-17T12:48:10.995Z,74.79
2022-12-17T12:51:22.141Z,74.21
2022-12-17T12:54:18.439Z,72.44
2022-12-17T12:57:06.227Z,73.01
2022-12-17T12:59:54.082Z,73.33
2022-12-17T13:02:39.531Z,73.62
2022-12-17T13:05:34.827Z,73.89
2022-12-17T13:08:07.297Z,73.05
2022-12-17T13:10:35.002Z,74.36
2022-12-17T13:13:12.655Z,73.09
2022-12-17T13:15:42.817Z,73.14
2022-12-17T13:18:36.074Z,73.82
2022-12-17T13:21:26.102Z,73.81
2022-12-17T13:23:53.215Z,73.05
2022-12-17T13:26:22.646Z,72.90
2022-12-17T13:29:04.072Z,71.45
2022-12-17T13:32:04.348Z,72.01
2022-12-17T13:35:10.088Z,70.84
2022-12-17T13:37:55.144Z,71.65
2022-12-17T13:41:09.374Z,72.81
2022-12-17T13:43:54.268Z,72.10
2022-12-17T13:46:23.729Z,72.50
2022-12-17T13:48:58.113Z,70.75
2022-12-17T13:51:28.729Z,71.87
2022-12-17T13:53:59.252Z,71.63
2022-12-17T13:56:30.204Z,72.42
2022-12-17T13:59:00.935Z,73.09
2022-12-17T14:01:30.767Z,72.23
2022-12-17T14:04:06.925Z,72.29
2022-12-17T14:06:36.824Z,72.02
2022-12-17T14:09:03.949Z,72.94
2022-12-17T14:11:50.715Z,71.33
2022-12-17T14:14:30.153Z,70.97
2022-12-17T14:16:56.818Z,72.47
2022-12-17T14:19:24.528Z,73.70
2022-12-17T14:21:51.897Z,71.34
2022-12-17T14:24:27.706Z,72.27
2022-12-17T14:26:59.999Z,72.26
2022-12-17T14:29:31.229Z,73.84
2022-12-17T14:32:03.623Z,72.09
2022-12-17T14:34:41.262Z,73.19
2022-12-17T14:37:16.634Z,72.92
2022-12-17T14:39:45.172Z,71.52
2022-12-17T14:42:30.703Z,72.03
2022-12-17T14:45:03.594Z,72.40
2022-12-17T14:47:31.502Z,72.87
2022-12-17T14:49:59.448Z,71.61
2022-12-17T14:52:53.229Z,71.39
2022-12-17T14:55:23.021Z,72.25
2022-12-17T14:57:50.678Z,71.46
2022-12-17T15:00:17.278Z,71.73
2022-12-17T15:02:44.914Z,70.91
2022-12-17T15:05:15.722Z,71.82
2022-12-17T15:07:42.587Z,71.39
2022-12-17T15:10:13.395Z,71.13
2022-12-17T15:12:42.788Z,71.46
2022-12-17T15:15:15.807Z,70.45
2022-12-17T15:17:42.415Z,69.68
2022-12-17T15:20:16.890Z,70.54
2022-12-17T15:22:43.452Z,70.43
2022-12-17T15:25:14.655Z,69.33
2022-12-17T15:27:41.548Z,70.09
2022-12-17T15:30:12.700Z,70.29
2022-12-17T15:32:39.161Z,70.28
2022-12-17T15:35:06.133Z,70.08
2022-12-17T15:37:32.574Z,69.14
2022-12-17T15:39:59.092Z,68.86
2022-12-17T15:42:44.042Z,69.21
2022-12-17T15:45:10.670Z,68.80
2022-12-17T15:47:37.376Z,70.49
2022-12-17T15:50:04.886Z,69.06
2022-12-17T15:52:31.362Z,69.33
2022-12-17T15:54:57.824Z,69.11
2022-12-17T15:57:24.299Z,68.78
2022-12-17T15:59:51.630Z,68.86
2022-12-17T16:02:18.271Z,69.21
2022-12-17T16:04:44.810Z,68.80
2022-12-17T16:07:11.244Z,68.12
2022-12-17T16:09:37.704Z,70.89
2022-12-17T16:12:04.227Z,70.12
2022-12-17T16:14:30.687Z,69.14
2022-12-17T16:16:57.130Z,69.52
2022-12-17T16:19:23.739Z,70.31
2022-12-17T16:21:50.197Z,68.71
2022-12-17T16:24:16.651Z,68.88
2022-12-17T16:26:43.108Z,69.56
2022-12-17T16:29:09.613Z,69.24
2022-12-17T16:31:36.145Z,69.31
2022-12-17T16:34:03.084Z,69.45
2022-12-17T16:36:29.601Z,68.86
2022-12-17T16:38:56.061Z,68.46
2022-12-17T16:41:22.895Z,68.80
2022-12-17T16:43:49.505Z,69.34
2022-12-17T16:46:38.122Z,69.42
2022-12-17T16:49:09.010Z,69.29
2022-12-17T16:51:36.215Z,70.67
2022-12-17T16:54:13.301Z,71.79
2022-12-17T16:56:40.721Z,71.46
2022-12-17T16:59:08.462Z,71.68
2022-12-17T17:01:35.676Z,70.35
2022-12-17T17:04:04.403Z,72.29
2022-12-17T17:06:33.765Z,71.30
2022-12-17T17:09:06.313Z,70.81
2022-12-17T17:11:32.965Z,71.38
2022-12-17T17:13:59.512Z,70.78
2022-12-17T17:16:26.713Z,70.49
2022-12-17T17:18:54.179Z,70.67
2022-12-17T17:21:20.592Z,70.27
2022-12-17T17:23:48.926Z,70.23
2022-12-17T17:26:16.123Z,70.81
2022-12-17T17:28:43.071Z,70.66
2022-12-17T17:31:12.403Z,69.95
2022-12-17T17:33:43.084Z,69.29
2022-12-17T17:36:11.655Z,70.51
2022-12-17T17:38:39.569Z,69.82
2022-12-17T17:41:08.704Z,71.28
2022-12-17T17:43:35.558Z,70.69
2022-12-17T17:46:15.759Z,70.87
2022-12-17T17:48:43.895Z,71.69
2022-12-17T17:51:29.532Z,72.45
2022-12-17T17:54:11.007Z,72.78
2022-12-17T17:56:41.738Z,73.63
2022-12-17T17:59:13.394Z,74.79
2022-12-17T18:01:43.194Z,73.37
2022-12-17T18:04:16.962Z,74.17
2022-12-17T18:07:02.602Z,73.48
2022-12-17T18:09:31.481Z,74.80
2022-12-17T18:12:17.939Z,75.00
2022-12-17T18:15:12.104Z,73.65
2022-12-17T18:17:31.515Z,73.71
2022-12-17T18:19:58.224Z,73.71
2022-12-17T18:22:24.733Z,72.92
2022-12-17T18:24:51.164Z,74.03
2022-12-17T18:27:17.991Z,73.91
2022-12-17T18:29:44.454Z,73.86
2022-12-17T18:32:10.924Z,74.80
2022-12-17T18:34:37.425Z,74.91
2022-12-17T18:37:05.501Z,72.97
2022-12-17T18:39:33.004Z,73.18
2022-12-17T18:42:18.154Z,74.35
2022-12-17T18:44:44.607Z,73.85
2022-12-17T18:47:11.260Z,72.33
2022-12-17T18:49:37.881Z,72.90
2022-12-17T18:52:04.403Z,71.68
2022-12-17T18:54:31.355Z,72.98
2022-12-17T18:57:02.262Z,72.46
2022-12-17T18:59:30.443Z,73.13
2022-12-17T19:01:57.529Z,73.43
2022-12-17T19:04:25.249Z,73.91
2022-12-17T19:06:53.679Z,73.64
2022-12-17T19:09:31.208Z,73.66
2022-12-17T19:11:58.535Z,74.23
2022-12-17T19:14:25.749Z,73.76
2022-12-17T19:16:53.892Z,73.35
2022-12-17T19:19:21.297Z,74.62
2022-12-17T19:21:48.778Z,73.83
2022-12-17T19:24:17.328Z,74.04
2022-12-17T19:26:44.855Z,76.10
2022-12-17T19:29:13.215Z,75.22
2022-12-17T19:31:40.107Z,75.13
2022-12-17T19:34:09.658Z,75.96
2022-12-17T19:36:36.468Z,76.60
2022-12-17T19:39:07.237Z,75.56
2022-12-17T19:41:34.081Z,75.46
2022-12-17T19:44:03.058Z,73.54
2022-12-17T19:46:32.111Z,73.40
2022-12-17T19:48:59.034Z,74.64
2022-12-17T19:51:27.366Z,72.93
2022-12-17T19:53:54.811Z,73.39
2022-12-17T19:56:29.686Z,74.45
2022-12-17T19:59:02.144Z,72.96
2022-12-17T20:01:33.693Z,72.77
2022-12-17T20:04:00.525Z,72.27
2022-12-17T20:06:29.375Z,73.88
2022-12-17T20:08:55.935Z,73.92
2022-12-17T20:11:34.638Z,73.55
2022-12-17T20:14:17.822Z,72.52
2022-12-17T20:16:58.713Z,71.93
2022-12-17T20:19:31.161Z,73.74
2022-12-17T20:21:59.213Z,73.08
2022-12-17T20:24:31.217Z,72.09
2022-12-17T20:26:59.381Z,72.56
2022-12-17T20:29:26.606Z,72.31
2022-12-17T20:31:55.018Z,71.92
2022-12-17T20:34:23.452Z,74.80
2022-12-17T20:36:51.096Z,72.83
2022-12-17T20:39:26.202Z,73.44
2022-12-17T20:41:57.972Z,72.36
2022-12-17T20:44:25.567Z,72.44
2022-12-17T20:46:52.555Z,71.27
2022-12-17T20:49:19.747Z,71.24
2022-12-17T20:51:46.295Z,72.60
2022-12-17T20:54:12.823Z,72.53
2022-12-17T20:56:39.885Z,72.70
2022-12-17T20:59:08.849Z,73.26
2022-12-17T21:01:36.574Z,73.64
2022-12-17T21:04:04.046Z,72.33
2022-12-17T21:06:34.644Z,71.88
2022-12-17T21:09:01.732Z,72.77
2022-12-17T21:11:30.531Z,72.72
2022-12-17T21:13:57.650Z,75.17
2022-12-17T21:16:27.655Z,74.49
2022-12-17T21:18:55.539Z,71.85
2022-12-17T21:21:24.335Z,72.11
2022-12-17T21:23:51.049Z,71.16
2022-12-17T21:26:27.300Z,72.57
2022-12-17T21:28:55.485Z,72.26
2022-12-17T21:31:27.692Z,72.18
2022-12-17T21:33:58.990Z,71.53
2022-12-17T21:36:27.899Z,72.88
2022-12-17T21:38:54.972Z,71.40
2022-12-17T21:41:23.817Z,71.22
2022-12-17T21:43:57.925Z,72.01
2022-12-17T21:46:27.187Z,70.89
2022-12-17T21:48:54.615Z,71.92
2022-12-17T21:51:22.063Z,71.81
2022-12-17T21:53:52.956Z,71.72
2022-12-17T21:56:20.116Z,71.79
2022-12-17T21:58:47.161Z,71.46
2022-12-17T22:01:18.914Z,70.47
2022-12-17T22:03:47.114Z,71.45
2022-12-17T22:06:17.240Z,70.42
2022-12-17T22:08:45.462Z,71.21
2022-12-17T22:11:21.090Z,71.51
2022-12-17T22:14:08.590Z,72.75
2022-12-17T22:16:47.066Z,72.25
2022-12-17T22:19:22.440Z,73.59
2022-12-17T22:21:50.258Z,71.79
2022-12-17T22:24:21.398Z,70.85
2022-12-17T22:26:48.417Z,71.86
2022-12-17T22:29:37.780Z,72.38
2022-12-17T22:32:28.279Z,73.24
2022-12-17T22:36:08.295Z,72.39
2022-12-17T22:39:59.397Z,71.66
2022-12-17T22:44:30.301Z,72.65
2022-12-17T22:44:44.078Z,72.22
2022-12-17T22:46:16.539Z,70.68
2022-12-17T22:48:43.128Z,70.96
2022-12-17T22:51:13.305Z,71.37
2022-12-17T22:53:53.961Z,71.26
2022-12-17T22:56:32.330Z,70.81
2022-12-17T22:59:08.864Z,71.89
2022-12-17T23:01:35.760Z,71.45
2022-12-17T23:04:03.735Z,72.53
2022-12-17T23:06:30.329Z,70.39
2022-12-17T23:08:56.818Z,69.57
2022-12-17T23:11:25.306Z,70.53
2022-12-17T23:13:52.918Z,70.01
2022-12-17T23:16:20.237Z,70.89
2022-12-17T23:18:48.302Z,71.24
2022-12-17T23:21:17.972Z,71.18
2022-12-17T23:23:44.566Z,71.12
2022-12-17T23:26:19.892Z,72.51
2022-12-17T23:28:46.668Z,70.55
2022-12-17T23:31:16.219Z,71.12
2022-12-17T23:33:42.973Z,71.80
2022-12-17T23:36:11.830Z,71.12
2022-12-17T23:38:38.966Z,71.11
2022-12-17T23:41:07.267Z,71.00
2022-12-17T23:43:34.203Z,70.67
2022-12-17T23:46:00.778Z,70.04
2022-12-17T23:48:31.734Z,69.83
2022-12-17T23:50:58.944Z,71.29
2022-12-17T23:53:26.599Z,71.17
2022-12-17T23:55:53.140Z,71.42
2022-12-17T23:58:19.917Z,72.96
